logo
Rechercher aéroport 
image banner adimage banner adimage banner ad
image banner ad

LZDV - Dubova

Situé à Modra, Slovakia

ICAO - , IATA -

Données fournies par Airmate  

Information générale

Coordonnées: N48°20'49" E17°21'24"
Élévation : 634 feet MSL.
Variation magnétique : 4.1611° East
Voir autres Aéroports à Trnava

Données opérationnelles

Special qualification required
Heure actuelle UTC:
Heure actuelle locale:
Météo à : LZMC - Malacky ( 19 km )
TAF: TAF LZMC 221930Z 2221/2306 VRB04KT 9999 SCT035 BECMG 2304/2306 32008KT
Voir NOTAMs / SUP AIP / TFR affectant cet aéroport [VIEW]
Fréquences de communication: [VIEW]

Pistes:

Identifiant RWYQFULongueur (ft)Largeur (ft)SurfaceLDA (ft)
13165798GRASS
31165798GRASS

Coordonnées de l'aéroport

Adresse: Modra Slovakia

Autres services d'aviation

Clubs d'aviation (sans but lucratif)

Pilot Club

Pilot Club

Vue satellite de LZDV